Terminal Aerodrome Forecast
Issued by NWS Norman, OK

Home | Current Version | Previous Version | Text Only | Print | Product List | Glossary On
Versions: 1 2 3 4 5 6 7 8 9 10 11 12 13 14 15 16 17 18 19 20 21 22
000
FTUS44 KOUN 061151 CCA
TAFOKC
TAF COR
KOKC 061151Z 0612/0712 01023G28KT P6SM BKN013
      TEMPO 0613/0614 SCT020 BKN250
     FM061400 36017G24KT P6SM SCT150 BKN250
     FM062000 01011KT P6SM SCT120 BKN250
     FM070000 06007KT P6SM SCT050 BKN120=

USA.gov is the U.S. government's official web portal to all federal, state and local government web resources and services.